Time;durP1;ratioP1;P1;durP2;ratioP2;P2;SDS_P1;SDS_P2;PMS_P1;PMS_P2;Temp;Humidity;BMP_temperature;BMP_pressure;BME280_temperature;BME280_humidity;BME280_pressure;Samples;Min_cycle;Max_cycle;Signal;HPM_P1;HPM_P2
2021/11/04 00:02:04;;;;;;;52.53;24.80;;;7.10;99.30;;;;;;4972188;28;20034;-76
2021/11/04 00:04:29;;;;;;;54.10;25.17;;;7.10;99.30;;;;;;4975909;28;20146;-76
2021/11/04 00:06:55;;;;;;;54.28;24.73;;;7.10;99.30;;;;;;4976174;28;20054;-75
2021/11/04 00:09:20;;;;;;;55.13;24.80;;;7.00;99.30;;;;;;4982651;28;20106;-75
2021/11/04 00:11:46;;;;;;;59.30;25.83;;;7.10;99.30;;;;;;4978752;28;20026;-75
2021/11/04 00:14:12;;;;;;;53.85;24.20;;;7.10;99.30;;;;;;4979176;28;20018;-75
2021/11/04 00:16:38;;;;;;;56.60;24.58;;;7.10;99.30;;;;;;4978658;28;20030;-76
2021/11/04 00:19:03;;;;;;;55.35;24.27;;;7.10;99.30;;;;;;4972370;28;20038;-76
2021/11/04 00:21:29;;;;;;;55.75;24.45;;;7.10;99.30;;;;;;4971749;28;20372;-77
2021/11/04 00:23:54;;;;;;;54.70;24.23;;;7.10;99.40;;;;;;4984518;28;20133;-75
2021/11/04 00:26:20;;;;;;;54.17;23.83;;;7.10;99.30;;;;;;4972884;28;20034;-76
2021/11/04 00:28:46;;;;;;;48.70;21.77;;;7.10;99.30;;;;;;4970570;28;20034;-76
2021/11/04 00:31:12;;;;;;;50.65;23.00;;;7.10;99.30;;;;;;4959344;28;20030;-76
2021/11/04 00:33:38;;;;;;;53.55;23.08;;;7.10;99.30;;;;;;4967111;28;20109;-75
2021/11/04 00:36:04;;;;;;;52.40;22.17;;;7.00;99.30;;;;;;4958724;28;20145;-75
2021/11/04 00:38:30;;;;;;;48.05;23.20;;;7.10;99.30;;;;;;4977175;28;20034;-75
2021/11/04 00:40:55;;;;;;;52.65;22.77;;;7.10;99.30;;;;;;4964629;28;20033;-75
2021/11/04 00:43:21;;;;;;;51.28;22.48;;;7.00;99.30;;;;;;4964772;28;20049;-75
2021/11/04 00:45:47;;;;;;;53.38;23.65;;;7.10;99.40;;;;;;4958627;28;20082;-75
2021/11/04 00:48:13;;;;;;;48.33;22.13;;;7.10;99.40;;;;;;4987801;28;20067;-75
2021/11/04 00:50:38;;;;;;;52.80;23.83;;;7.00;99.30;;;;;;4975092;28;20026;-75
2021/11/04 00:53:04;;;;;;;53.85;23.77;;;7.00;99.40;;;;;;4975250;28;21292;-76
2021/11/04 00:55:30;;;;;;;53.08;24.23;;;7.00;99.40;;;;;;4964262;28;20054;-75
2021/11/04 00:57:55;;;;;;;52.97;24.80;;;7.10;99.40;;;;;;4981471;28;20023;-75
2021/11/04 01:00:21;;;;;;;55.10;24.13;;;7.10;99.40;;;;;;4986560;28;20034;-76
2021/11/04 01:02:47;;;;;;;58.88;24.13;;;7.00;99.40;;;;;;4964135;28;20037;-76
2021/11/04 01:05:13;;;;;;;62.15;24.90;;;7.00;99.40;;;;;;4966162;28;20023;-76
2021/11/04 01:07:39;;;;;;;53.85;24.90;;;7.00;99.30;;;;;;4980648;28;20045;-75
2021/11/04 01:10:06;;;;;;;54.15;25.15;;;7.00;99.40;;;;;;4971395;28;20280;-76
2021/11/04 01:12:31;;;;;;;68.05;25.25;;;7.00;99.40;;;;;;4980906;28;20153;-76
2021/11/04 01:14:57;;;;;;;62.58;26.27;;;7.00;99.40;;;;;;4976810;28;20166;-75
2021/11/04 01:17:23;;;;;;;65.82;26.83;;;7.10;99.50;;;;;;4955953;28;20046;-75
2021/11/04 01:19:48;;;;;;;63.95;27.10;;;7.10;99.50;;;;;;4961861;28;20089;-76
2021/11/04 01:22:14;;;;;;;57.33;25.58;;;7.00;99.40;;;;;;4963201;28;20032;-75
2021/11/04 01:24:39;;;;;;;66.97;25.33;;;7.10;99.50;;;;;;4963674;28;20066;-75
2021/11/04 01:27:05;;;;;;;62.90;26.45;;;7.00;99.50;;;;;;4973067;28;20109;-76
2021/11/04 01:29:31;;;;;;;61.45;26.48;;;7.00;99.50;;;;;;4975549;28;20053;-75
2021/11/04 01:31:56;;;;;;;63.83;26.35;;;7.10;99.50;;;;;;4966731;28;20034;-75
2021/11/04 01:34:22;;;;;;;63.22;26.75;;;7.00;99.50;;;;;;4962987;28;20103;-76
2021/11/04 01:36:47;;;;;;;63.38;26.63;;;7.00;99.50;;;;;;4962565;28;20057;-75
2021/11/04 01:39:13;;;;;;;59.67;26.80;;;7.10;99.50;;;;;;4983583;28;20294;-76
2021/11/04 01:41:38;;;;;;;63.15;27.13;;;7.00;99.50;;;;;;4989090;28;20767;-75
2021/11/04 01:44:04;;;;;;;62.55;26.35;;;7.00;99.50;;;;;;4981867;28;20071;-76
2021/11/04 01:46:30;;;;;;;60.83;27.52;;;7.00;99.60;;;;;;4968588;28;20101;-77
2021/11/04 01:48:55;;;;;;;70.30;26.35;;;7.00;99.60;;;;;;4980123;28;20476;-75
2021/11/04 01:51:22;;;;;;;64.57;27.10;;;7.10;99.60;;;;;;4972272;28;20524;-76
2021/11/04 01:53:48;;;;;;;62.83;27.15;;;7.10;99.60;;;;;;4971860;28;20472;-75
2021/11/04 01:56:14;;;;;;;74.75;27.25;;;7.00;99.50;;;;;;4984917;28;20026;-75
2021/11/04 01:58:39;;;;;;;68.38;26.38;;;7.00;99.60;;;;;;4956215;28;20484;-75
2021/11/04 02:01:05;;;;;;;73.07;28.17;;;7.10;99.60;;;;;;4972120;28;20450;-75
2021/11/04 02:03:44;;;;;;;76.03;27.65;;;7.10;99.60;;;;;;4969765;28;20117;-78
2021/11/04 02:06:36;;;;;;;66.68;27.35;;;7.00;99.60;;;;;;4955826;28;20097;-75
2021/11/04 02:09:22;;;;;;;73.07;27.58;;;7.00;99.60;;;;;;4979520;28;20109;-76
2021/11/04 02:11:55;;;;;;;66.93;26.83;;;7.10;99.60;;;;;;4965353;28;20038;-76
2021/11/04 02:14:29;;;;;;;79.32;26.88;;;7.00;99.60;;;;;;4978067;28;20090;-75
2021/11/04 02:16:56;;;;;;;74.60;27.45;;;7.10;99.70;;;;;;4958863;28;20120;-75
2021/11/04 02:19:46;;;;;;;76.85;27.80;;;7.10;99.70;;;;;;4978285;28;20142;-75
2021/11/04 02:22:28;;;;;;;74.57;28.50;;;7.10;99.60;;;;;;4985700;28;20018;-75
2021/11/04 02:25:02;;;;;;;;;;;7.00;99.60;;;;;;4974253;28;20282;-76
2021/11/04 02:27:28;;;;;;;63.90;25.45;;;7.10;99.70;;;;;;4972100;28;19996;-75
2021/11/04 02:29:54;;;;;;;63.20;26.20;;;7.00;99.70;;;;;;4982273;28;20514;-75
2021/11/04 02:32:20;;;;;;;66.88;27.70;;;7.00;99.70;;;;;;4974381;28;20086;-75
2021/11/04 02:34:47;;;;;;;65.10;28.10;;;7.00;99.70;;;;;;4999949;23;20081;-78
2021/11/04 02:37:13;;;;;;;75.55;27.13;;;7.00;99.70;;;;;;4984209;28;20034;-78
2021/11/04 02:39:39;;;;;;;68.90;27.25;;;7.00;99.70;;;;;;4982383;28;20109;-77
2021/11/04 02:42:07;;;;;;;62.33;27.05;;;7.00;99.70;;;;;;4975867;28;20030;-79
2021/11/04 02:44:34;;;;;;;72.30;27.35;;;7.00;99.70;;;;;;4978344;28;20041;-79
2021/11/04 02:46:59;;;;;;;72.18;28.30;;;7.00;99.70;;;;;;4962915;28;20042;-79
2021/11/04 02:49:26;;;;;;;70.72;26.33;;;7.00;99.70;;;;;;4951877;28;20027;-79
2021/11/04 02:51:53;;;;;;;73.75;26.90;;;7.10;99.70;;;;;;4964430;28;20042;-78
2021/11/04 02:54:19;;;;;;;73.45;27.17;;;7.00;99.70;;;;;;4952959;28;20025;-78
2021/11/04 02:56:46;;;;;;;66.60;27.27;;;7.00;99.70;;;;;;4958205;28;20113;-78
2021/11/04 02:59:17;;;;;;;70.47;27.42;;;7.00;99.70;;;;;;4973514;28;20476;-79
2021/11/04 03:01:44;;;;;;;71.65;27.88;;;7.00;99.70;;;;;;4953466;28;20424;-78
2021/11/04 03:04:10;;;;;;;74.00;26.98;;;7.00;99.70;;;;;;4986069;28;20091;-79
2021/11/04 03:06:36;;;;;;;73.60;26.73;;;7.00;99.70;;;;;;4973643;28;20030;-77
2021/11/04 03:09:03;;;;;;;70.45;26.50;;;7.00;99.80;;;;;;4969001;28;20019;-79
2021/11/04 03:11:29;;;;;;;75.05;25.20;;;7.00;99.80;;;;;;4976610;28;20034;-79
2021/11/04 03:13:54;;;;;;;70.10;26.35;;;7.00;99.80;;;;;;4990542;28;20031;-79
2021/11/04 03:16:21;;;;;;;63.47;26.15;;;7.00;99.80;;;;;;4973655;28;20030;-79
2021/11/04 03:18:47;;;;;;;72.30;26.17;;;7.00;99.70;;;;;;4991320;28;20122;-79
2021/11/04 03:21:14;;;;;;;65.07;26.90;;;7.00;99.80;;;;;;4970128;28;20027;-79
2021/11/04 03:23:40;;;;;;;74.00;26.80;;;7.00;99.80;;;;;;4991952;28;20031;-79
2021/11/04 03:26:05;;;;;;;73.00;27.05;;;7.00;99.80;;;;;;4985921;28;20066;-79
2021/11/04 03:28:32;;;;;;;69.03;26.33;;;7.00;99.80;;;;;;4994345;28;20086;-79
2021/11/04 03:30:58;;;;;;;77.63;27.05;;;7.00;99.80;;;;;;4981571;28;20019;-79
2021/11/04 03:33:30;;;;;;;76.18;27.70;;;7.00;99.80;;;;;;4993951;28;20038;-82
2021/11/04 03:35:58;;;;;;;72.68;27.05;;;7.00;99.80;;;;;;4977246;28;20058;-81
2021/11/04 03:38:24;;;;;;;75.07;26.77;;;7.00;99.80;;;;;;4980138;28;20305;-81
2021/11/04 03:40:51;;;;;;;82.28;27.77;;;7.00;99.80;;;;;;4969886;28;20033;-81
2021/11/04 03:43:17;;;;;;;66.57;26.73;;;7.00;99.80;;;;;;4970273;28;20037;-81
2021/11/04 03:45:44;;;;;;;81.55;26.17;;;7.00;99.80;;;;;;4951472;28;20598;-80
2021/11/04 03:48:11;;;;;;;72.72;26.80;;;7.00;99.80;;;;;;4973888;28;20027;-81
2021/11/04 03:50:37;;;;;;;73.63;28.10;;;7.00;99.80;;;;;;4968193;28;20027;-81
2021/11/04 03:53:04;;;;;;;71.32;26.85;;;7.00;99.80;;;;;;4972638;28;20018;-81
2021/11/04 03:55:31;;;;;;;76.65;27.80;;;7.10;99.80;;;;;;4966072;28;20026;-80
2021/11/04 03:57:59;;;;;;;76.15;28.45;;;7.00;99.80;;;;;;4973257;28;20042;-81
2021/11/04 04:00:25;;;;;;;91.18;28.58;;;7.00;99.70;;;;;;4969955;28;20054;-80
2021/11/04 04:02:51;;;;;;;78.63;27.98;;;7.00;99.80;;;;;;4973788;28;20047;-80
2021/11/04 04:05:29;;;;;;;73.50;28.67;;;7.00;99.80;;;;;;4970547;28;20034;-80
2021/11/04 04:07:56;;;;;;;74.80;26.92;;;7.00;99.80;;;;;;4955979;28;20035;-80
2021/11/04 04:10:22;;;;;;;73.55;27.50;;;7.00;99.80;;;;;;4959995;28;20464;-80
2021/11/04 04:12:47;;;;;;;72.38;27.45;;;7.00;99.80;;;;;;4968711;28;20522;-80
2021/11/04 04:15:13;;;;;;;80.45;28.73;;;7.00;99.80;;;;;;4971962;28;20435;-80
2021/11/04 04:17:38;;;;;;;78.13;29.55;;;7.00;99.80;;;;;;4948610;28;20086;-80
2021/11/04 04:20:05;;;;;;;64.80;26.98;;;7.00;99.80;;;;;;4974158;28;20625;-80
2021/11/04 04:22:30;;;;;;;69.97;27.10;;;7.00;99.80;;;;;;4973466;28;20037;-80
2021/11/04 04:24:56;;;;;;;78.80;28.50;;;7.00;99.80;;;;;;4963180;28;20398;-80
2021/11/04 04:27:21;;;;;;;79.50;28.80;;;7.00;99.80;;;;;;4969112;28;20023;-80
2021/11/04 04:29:47;;;;;;;76.20;27.63;;;7.00;99.80;;;;;;4968315;28;20078;-79
2021/11/04 04:32:13;;;;;;;73.88;28.20;;;7.00;99.90;;;;;;4967013;28;20328;-80
2021/11/04 04:34:39;;;;;;;71.57;28.02;;;7.00;99.80;;;;;;4955565;28;20035;-80
2021/11/04 04:37:05;;;;;;;72.93;27.52;;;7.00;99.80;;;;;;4964903;28;20057;-80
2021/11/04 04:39:33;;;;;;;73.53;27.45;;;7.00;99.80;;;;;;4969435;28;20023;-80
2021/11/04 04:41:58;;;;;;;81.70;26.40;;;7.00;99.80;;;;;;4967166;28;20393;-80
2021/11/04 04:44:24;;;;;;;73.13;28.02;;;7.00;99.80;;;;;;4972027;28;20488;-79
2021/11/04 04:46:49;;;;;;;79.82;28.38;;;7.00;99.80;;;;;;4968491;28;20046;-81
2021/11/04 04:49:15;;;;;;;71.15;26.48;;;7.00;99.80;;;;;;4976590;28;20019;-80
2021/11/04 04:51:40;;;;;;;70.55;26.15;;;7.00;99.80;;;;;;4967307;28;20038;-79
2021/11/04 04:54:06;;;;;;;62.08;27.00;;;7.00;99.80;;;;;;4973293;28;20027;-79
2021/11/04 04:56:31;;;;;;;73.40;26.60;;;6.90;99.80;;;;;;4955061;28;20532;-79
2021/11/04 04:58:59;;;;;;;66.32;26.20;;;7.00;99.80;;;;;;4970937;28;20035;-79
2021/11/04 05:01:24;;;;;;;58.33;24.45;;;6.90;99.80;;;;;;4950262;28;20027;-80
2021/11/04 05:03:50;;;;;;;68.57;25.85;;;6.90;99.80;;;;;;4970944;28;20045;-80
2021/11/04 05:06:15;;;;;;;62.08;24.75;;;7.00;99.80;;;;;;4961429;28;20023;-80
2021/11/04 05:08:41;;;;;;;67.65;26.63;;;6.90;99.80;;;;;;4955514;28;20035;-80
2021/11/04 05:11:06;;;;;;;62.65;24.95;;;6.90;99.80;;;;;;4973314;28;20485;-80
2021/11/04 05:13:32;;;;;;;68.80;25.33;;;6.90;99.80;;;;;;4974519;28;20507;-79
2021/11/04 05:15:58;;;;;;;64.45;25.20;;;7.00;99.90;;;;;;4969582;28;20046;-80
2021/11/04 05:18:24;;;;;;;62.05;25.13;;;6.90;99.90;;;;;;4970418;28;20022;-79
2021/11/04 05:20:51;;;;;;;58.78;24.65;;;6.90;99.80;;;;;;4954832;28;20042;-79
2021/11/04 05:23:17;;;;;;;57.28;24.65;;;6.90;99.80;;;;;;4965799;28;20035;-80
2021/11/04 05:25:43;;;;;;;59.67;24.67;;;6.90;99.80;;;;;;4964569;28;20102;-79
2021/11/04 05:28:08;;;;;;;76.55;25.35;;;6.90;99.90;;;;;;4966955;28;20322;-79
2021/11/04 05:30:34;;;;;;;63.50;26.02;;;6.90;99.90;;;;;;4961261;28;20031;-79
2021/11/04 05:32:59;;;;;;;67.32;26.70;;;6.90;99.80;;;;;;4968066;28;20030;-79
2021/11/04 05:35:25;;;;;;;60.40;24.52;;;6.90;99.90;;;;;;4973399;28;20037;-77
2021/11/04 05:37:51;;;;;;;68.90;25.92;;;6.90;99.80;;;;;;4958473;28;20031;-79
2021/11/04 05:40:16;;;;;;;64.18;24.17;;;6.90;99.90;;;;;;4966523;28;20492;-79
2021/11/04 05:42:42;;;;;;;72.85;24.75;;;6.90;99.90;;;;;;4966074;28;20042;-79
2021/11/04 05:45:08;;;;;;;72.22;25.30;;;6.90;99.80;;;;;;4959722;28;20427;-80
2021/11/04 05:47:33;;;;;;;75.80;25.38;;;6.90;99.80;;;;;;4967786;28;20030;-80
2021/11/04 05:49:59;;;;;;;76.95;26.27;;;6.90;99.90;;;;;;4950570;28;20400;-80
2021/11/04 05:52:25;;;;;;;62.50;23.60;;;6.90;99.90;;;;;;4964524;28;20106;-81
2021/11/04 05:54:56;;;;;;;63.85;23.00;;;6.80;99.80;;;;;;4967141;28;20451;-79
2021/11/04 05:57:22;;;;;;;67.05;22.73;;;6.90;99.80;;;;;;4966118;28;20027;-78
2021/11/04 05:59:48;;;;;;;60.28;22.75;;;6.90;99.90;;;;;;4964812;28;20050;-79
2021/11/04 06:02:14;;;;;;;64.20;22.88;;;6.80;99.80;;;;;;4963214;28;20023;-79
2021/11/04 06:04:44;;;;;;;77.40;27.05;;;6.80;99.80;;;;;;4963519;28;20047;-79
2021/11/04 06:07:10;;;;;;;81.88;26.60;;;6.80;99.90;;;;;;4957691;28;20209;-80
2021/11/04 06:09:36;;;;;;;82.68;28.13;;;6.80;99.90;;;;;;4972041;28;20463;-79
2021/11/04 06:12:01;;;;;;;67.75;25.08;;;6.80;99.80;;;;;;4974288;28;20054;-79
2021/11/04 06:14:27;;;;;;;68.28;25.55;;;6.90;99.90;;;;;;4955899;28;20041;-81
2021/11/04 06:16:52;;;;;;;74.97;24.48;;;6.80;99.90;;;;;;4949279;28;20127;-81
2021/11/04 06:19:19;;;;;;;73.20;24.27;;;6.80;99.90;;;;;;4970299;28;20058;-81
2021/11/04 06:21:44;;;;;;;57.55;21.55;;;6.90;99.90;;;;;;4969721;28;20416;-81
2021/11/04 06:24:10;;;;;;;56.78;21.48;;;6.80;99.90;;;;;;4953988;28;20036;-81
2021/11/04 06:26:36;;;;;;;55.05;22.05;;;6.80;99.90;;;;;;4973187;28;20584;-78
2021/11/04 06:29:02;;;;;;;61.67;21.55;;;6.90;99.90;;;;;;4971945;28;20844;-78
2021/11/04 06:31:27;;;;;;;47.22;21.02;;;6.80;99.90;;;;;;4954182;28;20030;-79
2021/11/04 06:33:53;;;;;;;55.65;21.08;;;6.80;99.80;;;;;;4976093;28;20030;-81
2021/11/04 06:36:19;;;;;;;57.88;21.90;;;6.80;99.90;;;;;;4951657;28;20036;-79
2021/11/04 06:38:44;;;;;;;60.35;22.33;;;6.80;99.90;;;;;;4972269;28;20387;-80
2021/11/04 06:41:09;;;;;;;58.53;22.05;;;6.80;99.90;;;;;;4956709;28;20058;-80
2021/11/04 06:43:35;;;;;;;63.00;22.20;;;6.80;99.90;;;;;;4958234;28;20426;-79
2021/11/04 06:46:02;;;;;;;60.22;21.90;;;6.80;99.90;;;;;;4971345;28;20042;-80
2021/11/04 06:48:40;;;;;;;54.38;21.27;;;6.80;99.90;;;;;;4974803;28;20019;-80
2021/11/04 06:51:07;;;;;;;56.95;20.98;;;6.80;99.90;;;;;;4968461;28;20114;-79
2021/11/04 06:53:32;;;;;;;70.10;22.92;;;6.80;99.90;;;;;;4951564;28;20033;-81
2021/11/04 06:56:02;;;;;;;55.92;22.58;;;6.80;99.90;;;;;;4952386;28;20034;-79
2021/11/04 06:58:31;;;;;;;60.97;23.25;;;6.80;99.90;;;;;;4975537;28;20057;-80
2021/11/04 07:00:59;;;;;;;61.28;21.98;;;6.90;99.90;;;;;;4976751;28;20033;-81
2021/11/04 07:03:28;;;;;;;48.03;21.02;;;6.90;99.90;;;;;;4975721;28;20038;-80
2021/11/04 07:06:08;;;;;;;56.95;21.38;;;6.90;99.90;;;;;;4976569;28;20038;-80
2021/11/04 07:08:41;;;;;;;47.25;21.27;;;6.90;99.90;;;;;;4961426;28;20090;-80
2021/11/04 07:11:07;;;;;;;45.42;19.73;;;6.90;99.90;;;;;;4970581;28;20459;-80
2021/11/04 07:13:33;;;;;;;42.78;17.98;;;6.90;99.90;;;;;;4958816;28;20070;-81
2021/11/04 07:16:00;;;;;;;31.17;16.30;;;6.90;99.90;;;;;;4954326;28;20026;-78
2021/11/04 07:18:27;;;;;;;38.05;17.05;;;6.80;99.90;;;;;;4963146;28;20055;-80
2021/11/04 07:21:14;;;;;;;32.10;15.40;;;6.80;99.90;;;;;;4970963;28;20042;-80
2021/11/04 07:23:50;;;;;;;27.10;13.43;;;6.80;99.90;;;;;;4969036;28;20042;-80
2021/11/04 07:26:16;;;;;;;29.33;13.35;;;6.80;99.80;;;;;;4970651;28;20055;-81
2021/11/04 07:28:43;;;;;;;28.45;13.07;;;6.90;99.80;;;;;;4946271;28;20034;-80
2021/11/04 07:31:10;;;;;;;23.38;11.88;;;6.90;99.80;;;;;;4977489;28;20586;-81
2021/11/04 07:33:43;;;;;;;21.60;11.23;;;6.90;99.80;;;;;;4972528;28;20031;-80
2021/11/04 07:36:10;;;;;;;21.27;11.02;;;6.80;99.80;;;;;;4967398;28;20495;-80
2021/11/04 07:38:38;;;;;;;21.67;10.90;;;6.90;99.80;;;;;;4955276;28;20097;-79
2021/11/04 07:41:05;;;;;;;20.40;11.20;;;6.90;99.80;;;;;;4966537;28;20373;-80
2021/11/04 07:43:31;;;;;;;20.27;10.45;;;6.90;99.70;;;;;;4975590;28;20094;-80
2021/11/04 07:45:57;;;;;;;22.13;10.18;;;6.90;99.70;;;;;;4975500;28;20030;-80
2021/11/04 07:48:23;;;;;;;19.02;10.07;;;6.90;99.70;;;;;;4969405;28;20122;-79
2021/11/04 07:50:50;;;;;;;20.38;10.02;;;6.90;99.70;;;;;;4973906;28;20031;-80
2021/11/04 07:53:17;;;;;;;20.80;10.82;;;7.00;99.70;;;;;;4972645;28;20085;-80
2021/11/04 07:55:42;;;;;;;16.63;10.13;;;7.00;99.60;;;;;;4973513;28;20492;-80
2021/11/04 07:58:08;;;;;;;19.23;10.25;;;7.00;99.60;;;;;;4969425;28;20031;-80
2021/11/04 08:00:33;;;;;;;18.25;9.75;;;7.00;99.70;;;;;;4970722;28;20221;-80
2021/11/04 08:02:59;;;;;;;20.75;10.73;;;7.00;99.60;;;;;;4976530;28;20475;-80
2021/11/04 08:05:24;;;;;;;18.42;9.98;;;7.10;99.60;;;;;;4978351;28;20023;-80
2021/11/04 08:07:50;;;;;;;19.70;10.10;;;7.10;99.60;;;;;;4950020;28;20408;-80
2021/11/04 08:10:17;;;;;;;18.35;9.98;;;7.10;99.60;;;;;;4957471;28;20019;-80
2021/11/04 08:12:44;;;;;;;18.77;11.18;;;7.10;99.60;;;;;;4970536;28;21094;-80
2021/11/04 08:15:11;;;;;;;21.98;11.52;;;7.20;99.50;;;;;;4969514;28;20034;-80
2021/11/04 08:17:36;;;;;;;21.73;12.52;;;7.10;99.50;;;;;;4951722;28;20115;-79
2021/11/04 08:20:07;;;;;;;21.42;12.20;;;7.20;99.50;;;;;;4973882;28;20058;-78
2021/11/04 08:22:33;;;;;;;25.33;13.85;;;7.20;99.50;;;;;;4957579;28;20109;-81
2021/11/04 08:24:59;;;;;;;27.33;14.43;;;7.20;99.40;;;;;;4978533;28;20496;-79
2021/11/04 08:27:25;;;;;;;24.65;13.27;;;7.10;99.50;;;;;;4953445;28;20559;-81
2021/11/04 08:29:50;;;;;;;25.00;12.68;;;7.20;99.50;;;;;;4969719;28;20031;-80
2021/11/04 08:32:16;;;;;;;24.40;13.25;;;7.30;99.40;;;;;;4967787;28;20041;-81
2021/11/04 08:37:11;;;;;;;21.67;12.48;;;7.30;99.50;;;;;;4992570;23;20464;-75
2021/11/04 08:39:38;;;;;;;22.05;12.35;;;7.30;99.40;;;;;;4974963;28;20432;-74
2021/11/04 08:42:05;;;;;;;25.08;12.75;;;7.30;99.30;;;;;;4980416;28;20356;-75
2021/11/04 08:44:32;;;;;;;24.50;13.68;;;7.30;99.40;;;;;;4976412;28;20109;-75
2021/11/04 08:46:59;;;;;;;23.45;13.35;;;7.30;99.40;;;;;;4962663;28;20209;-74
2021/11/04 08:49:24;;;;;;;24.20;13.05;;;7.30;99.40;;;;;;4961128;28;20034;-74
2021/11/04 08:51:54;;;;;;;24.83;13.52;;;7.30;99.40;;;;;;4945847;28;20471;-74
2021/11/04 08:54:21;;;;;;;29.25;14.73;;;7.30;99.40;;;;;;4954515;28;20047;-74
2021/11/04 08:56:47;;;;;;;24.08;13.85;;;7.30;99.40;;;;;;4964661;28;20621;-73
2021/11/04 08:59:13;;;;;;;28.08;13.68;;;7.40;99.50;;;;;;4965532;28;20140;-74
2021/11/04 09:01:39;;;;;;;25.55;14.52;;;7.40;99.40;;;;;;4958431;28;20232;-73
2021/11/04 09:04:04;;;;;;;28.23;14.50;;;7.40;99.40;;;;;;4960804;28;20109;-74
2021/11/04 09:06:30;;;;;;;32.15;14.90;;;7.40;99.40;;;;;;4959650;28;20031;-74
2021/11/04 09:08:56;;;;;;;32.05;15.50;;;7.50;99.50;;;;;;4950814;28;20025;-74
2021/11/04 09:11:21;;;;;;;30.98;15.27;;;7.50;99.40;;;;;;4952962;28;20023;-74
2021/11/04 09:13:47;;;;;;;33.28;15.10;;;7.50;99.50;;;;;;4935642;28;20102;-74
2021/11/04 09:16:13;;;;;;;28.38;14.63;;;7.50;99.40;;;;;;4963720;28;20409;-74
2021/11/04 09:18:38;;;;;;;27.00;14.52;;;7.40;99.30;;;;;;4959167;28;20039;-74
2021/11/04 09:21:03;;;;;;;30.10;13.82;;;7.50;99.50;;;;;;4959056;28;20112;-73
2021/11/04 09:23:29;;;;;;;31.52;15.80;;;7.60;99.50;;;;;;4952856;28;20035;-74
2021/11/04 09:25:55;;;;;;;27.70;14.43;;;7.60;99.40;;;;;;4962798;28;20239;-75
2021/11/04 09:28:21;;;;;;;25.88;14.73;;;7.70;99.40;;;;;;4961512;28;20053;-75
2021/11/04 09:30:46;;;;;;;30.08;13.95;;;7.60;99.30;;;;;;4957685;28;20024;-75
2021/11/04 09:33:14;;;;;;;23.85;13.38;;;7.60;99.40;;;;;;4955915;28;20465;-74
2021/11/04 09:35:40;;;;;;;29.52;14.57;;;7.60;99.30;;;;;;4950418;28;20404;-75
2021/11/04 09:38:06;;;;;;;29.45;15.45;;;7.60;99.40;;;;;;4950932;28;20117;-74
2021/11/04 09:40:32;;;;;;;27.80;14.23;;;7.70;99.40;;;;;;4952362;28;20079;-74
2021/11/04 09:42:58;;;;;;;26.50;14.43;;;7.70;99.30;;;;;;4964977;28;20034;-75
2021/11/04 09:45:28;;;;;;;26.05;14.50;;;7.70;99.30;;;;;;4954006;28;20079;-75
2021/11/04 09:47:54;;;;;;;23.35;13.82;;;7.70;99.20;;;;;;4950773;28;20050;-75
2021/11/04 09:50:20;;;;;;;24.17;14.20;;;7.60;99.20;;;;;;4958251;28;20340;-74
2021/11/04 09:52:49;;;;;;;20.10;11.70;;;7.70;99.30;;;;;;4949258;28;20044;-74
2021/11/04 09:55:18;;;;;;;22.80;12.57;;;7.60;99.20;;;;;;4960931;28;20015;-75
2021/11/04 09:57:48;;;;;;;20.05;11.15;;;7.70;99.10;;;;;;4958635;28;20122;-75
2021/11/04 10:00:15;;;;;;;17.50;10.48;;;7.70;99.10;;;;;;4966202;28;20294;-74
2021/11/04 10:02:44;;;;;;;18.95;11.00;;;7.80;99.00;;;;;;4958757;28;20035;-75
2021/11/04 10:05:15;;;;;;;16.83;10.95;;;7.80;99.10;;;;;;4960834;28;20116;-75
2021/11/04 10:07:46;;;;;;;17.05;10.13;;;7.80;99.00;;;;;;4944583;28;20042;-74
2021/11/04 10:10:13;;;;;;;;;;;7.80;98.80;;;;;;4942210;28;20102;-74
2021/11/04 10:12:57;;;;;;;18.80;9.48;;;7.80;98.90;;;;;;4950591;28;19910;-78
2021/11/04 10:15:23;;;;;;;18.63;10.25;;;7.90;98.90;;;;;;4946708;28;20062;-75
2021/11/04 10:17:49;;;;;;;18.38;10.70;;;7.90;98.80;;;;;;4938981;28;20066;-74
2021/11/04 10:20:17;;;;;;;20.08;10.80;;;8.00;98.70;;;;;;4959629;28;20480;-76
2021/11/04 10:22:43;;;;;;;19.55;10.68;;;8.10;98.80;;;;;;4958563;28;22247;-73
2021/11/04 10:25:25;;;;;;;20.80;12.25;;;8.00;98.60;;;;;;4945272;28;20019;-74
2021/11/04 10:27:51;;;;;;;16.48;10.32;;;8.00;98.50;;;;;;4951154;28;20023;-75
2021/11/04 10:30:37;;;;;;;18.35;11.18;;;7.90;98.40;;;;;;4951352;28;20031;-74
2021/11/04 10:33:19;;;;;;;20.35;11.48;;;8.00;98.50;;;;;;4956765;28;20095;-76
2021/11/04 10:35:50;;;;;;;21.92;11.20;;;8.00;98.30;;;;;;4943561;28;20126;-74
2021/11/04 10:38:16;;;;;;;19.40;11.88;;;7.80;98.10;;;;;;4962405;28;20175;-74
2021/11/04 10:40:41;;;;;;;17.50;11.85;;;8.00;98.50;;;;;;4958847;28;20031;-74
2021/11/04 10:43:07;;;;;;;18.83;11.18;;;7.90;98.30;;;;;;4952842;28;20031;-76
2021/11/04 10:45:32;;;;;;;22.65;11.30;;;8.00;98.40;;;;;;4949755;28;20098;-75
2021/11/04 10:48:20;;;;;;;20.63;12.13;;;7.80;98.30;;;;;;4959411;28;20034;-76
2021/11/04 10:50:46;;;;;;;19.73;11.68;;;7.90;98.40;;;;;;4956932;28;20045;-73
2021/11/04 10:53:12;;;;;;;19.55;11.77;;;7.80;98.10;;;;;;4949917;28;20399;-74
2021/11/04 10:55:39;;;;;;;20.80;13.15;;;7.80;98.20;;;;;;4981202;28;20070;-74
2021/11/04 10:58:29;;;;;;;20.13;11.52;;;7.80;98.20;;;;;;4974604;28;20399;-73
2021/11/04 11:00:54;;;;;;;19.83;11.02;;;7.80;98.00;;;;;;4974396;28;20089;-74
2021/11/04 11:03:22;;;;;;;17.38;11.60;;;7.90;98.20;;;;;;4973923;28;20412;-74
2021/11/04 11:05:48;;;;;;;21.58;12.45;;;7.90;98.20;;;;;;4973302;28;20588;-74
2021/11/04 11:08:15;;;;;;;19.25;12.18;;;7.90;98.20;;;;;;4960713;28;20023;-75
2021/11/04 11:10:41;;;;;;;15.95;11.75;;;7.90;98.10;;;;;;4973707;28;20110;-75
2021/11/04 11:13:08;;;;;;;19.30;12.18;;;7.90;98.10;;;;;;4979646;28;20492;-74
2021/11/04 11:15:37;;;;;;;22.80;12.15;;;7.90;98.10;;;;;;4975188;28;20396;-75
2021/11/04 11:18:08;;;;;;;20.80;12.48;;;7.90;98.10;;;;;;4980014;28;20495;-75
2021/11/04 11:20:43;;;;;;;19.48;12.60;;;7.90;98.20;;;;;;4978672;28;20027;-75
2021/11/04 11:23:11;;;;;;;18.52;12.60;;;7.90;98.20;;;;;;4962482;28;20043;-76
2021/11/04 11:25:37;;;;;;;20.27;11.88;;;7.80;98.00;;;;;;4974814;28;20446;-74
2021/11/04 11:28:04;;;;;;;19.70;12.70;;;7.80;98.10;;;;;;4972679;28;20042;-75
2021/11/04 11:30:29;;;;;;;18.60;12.43;;;7.80;98.10;;;;;;4960701;28;20118;-76
2021/11/04 11:33:18;;;;;;;19.38;11.45;;;7.80;98.10;;;;;;4979073;28;20184;-74
2021/11/04 11:36:09;;;;;;;15.70;10.98;;;7.70;97.80;;;;;;4963062;28;20034;-76
2021/11/04 11:38:56;;;;;;;16.57;10.97;;;7.80;98.00;;;;;;4981638;28;20399;-75
2021/11/04 11:41:47;;;;;;;19.83;10.75;;;7.80;98.10;;;;;;4981909;28;20029;-75
2021/11/04 11:44:13;;;;;;;17.30;9.95;;;7.80;98.00;;;;;;4977256;28;20132;-75
2021/11/04 11:47:04;;;;;;;17.25;11.18;;;7.80;98.00;;;;;;4977673;28;20077;-75
2021/11/04 11:49:31;;;;;;;16.65;9.85;;;7.80;98.00;;;;;;4960742;28;20051;-74
2021/11/04 11:51:57;;;;;;;16.48;10.43;;;7.70;97.90;;;;;;4984481;28;20030;-76
2021/11/04 11:55:03;;;;;;;17.98;10.75;;;7.80;98.00;;;;;;4970714;28;20172;-75
2021/11/04 11:57:29;;;;;;;19.15;10.52;;;7.80;97.80;;;;;;4974264;28;20062;-75
2021/11/04 11:59:57;;;;;;;18.60;10.02;;;7.90;98.10;;;;;;4980211;28;20070;-76
2021/11/04 12:02:42;;;;;;;17.17;9.65;;;7.90;97.90;;;;;;4979631;28;20501;-76
2021/11/04 12:05:23;;;;;;;14.98;10.00;;;8.00;98.00;;;;;;4966878;28;20088;-75
2021/11/04 12:07:50;;;;;;;18.10;10.60;;;7.90;98.00;;;;;;4977719;28;20090;-75
2021/11/04 12:10:30;;;;;;;16.45;9.50;;;8.00;98.10;;;;;;4971574;28;20045;-76
2021/11/04 12:12:57;;;;;;;14.57;9.32;;;7.80;98.00;;;;;;4958974;28;20046;-75
2021/11/04 12:15:26;;;;;;;14.00;8.70;;;7.80;97.90;;;;;;4977675;28;20468;-73
2021/11/04 12:18:18;;;;;;;13.40;8.77;;;7.90;98.00;;;;;;4972185;28;20459;-74
2021/11/04 12:20:55;;;;;;;14.65;8.05;;;7.90;98.00;;;;;;4977474;28;20057;-76
2021/11/04 12:23:21;;;;;;;14.02;8.15;;;7.80;97.70;;;;;;4964584;28;20089;-75
2021/11/04 12:25:48;;;;;;;15.68;8.55;;;7.80;97.90;;;;;;4960793;28;20061;-74
2021/11/04 12:28:17;;;;;;;11.45;7.57;;;7.80;97.80;;;;;;4978563;28;20104;-75
2021/11/04 12:30:43;;;;;;;14.75;9.05;;;7.80;97.80;;;;;;4968741;28;20037;-75
2021/11/04 12:33:10;;;;;;;14.02;8.82;;;7.80;97.90;;;;;;4983935;28;20499;-75
2021/11/04 12:35:51;;;;;;;15.40;7.90;;;7.80;97.90;;;;;;4981585;28;20038;-75
2021/11/04 12:38:21;;;;;;;13.20;8.48;;;7.80;97.90;;;;;;4977596;28;20022;-74
2021/11/04 12:41:00;;;;;;;14.07;8.35;;;7.80;97.90;;;;;;4958568;28;20413;-76
2021/11/04 12:43:32;;;;;;;12.73;8.10;;;7.90;98.00;;;;;;4969961;28;20026;-76
2021/11/04 12:46:15;;;;;;;12.48;7.72;;;7.80;97.90;;;;;;4958731;28;20106;-76